Time;durP1;ratioP1;P1;durP2;ratioP2;P2;SDS_P1;SDS_P2;PMS_P1;PMS_P2;Temp;Humidity;BMP_temperature;BMP_pressure;BME280_temperature;BME280_humidity;BME280_pressure;Samples;Min_cycle;Max_cycle;Signal;HPM_P1;HPM_P2
2022/04/05 00:00:46;;;;;;;28.17;25.73;;;;;;;8.68;100.00;100690.31;5186843;28;20464;-85
2022/04/05 00:03:17;;;;;;;32.05;28.45;;;;;;;8.68;100.00;100690.31;5186647;28;20097;-82
2022/04/05 00:05:47;;;;;;;30.45;27.50;;;;;;;8.68;100.00;100690.31;5186440;28;20014;-81
2022/04/05 00:08:17;;;;;;;30.30;27.75;;;;;;;8.68;100.00;100690.31;5186769;28;20436;-82
2022/04/05 00:10:48;;;;;;;32.15;28.88;;;;;;;8.68;100.00;100690.31;5186323;28;20022;-81
2022/04/05 00:13:18;;;;;;;29.45;26.75;;;;;;;8.68;100.00;100690.31;5168573;28;20446;-81
2022/04/05 00:15:48;;;;;;;29.90;27.20;;;;;;;8.68;100.00;100690.31;5185965;28;20168;-80
2022/04/05 00:18:19;;;;;;;30.48;27.48;;;;;;;8.68;100.00;100690.31;5186378;28;20116;-81
2022/04/05 00:20:50;;;;;;;31.10;27.90;;;;;;;8.68;100.00;100690.31;5186050;28;20401;-83
2022/04/05 00:23:20;;;;;;;31.38;28.38;;;;;;;9.02;100.00;100701.00;5186147;28;20497;-82
2022/04/05 00:25:50;;;;;;;30.58;27.42;;;;;;;8.98;100.00;100689.09;5185700;28;20539;-81
2022/04/05 00:28:21;;;;;;;30.67;27.58;;;;;;;8.98;100.00;100689.09;5186409;28;20057;-80
2022/04/05 00:30:51;;;;;;;32.30;29.25;;;;;;;8.95;100.00;100678.84;5186119;28;20223;-81
2022/04/05 00:33:22;;;;;;;31.92;28.80;;;;;;;9.04;100.00;100693.50;5185990;28;20099;-82
2022/04/05 00:35:52;;;;;;;33.85;29.58;;;;;;;8.90;100.00;100679.59;5186419;28;20024;-81
2022/04/05 00:38:23;;;;;;;29.48;26.90;;;;;;;8.80;100.00;100652.53;5187510;28;20025;-82
2022/04/05 00:40:53;;;;;;;34.83;31.48;;;;;;;9.06;100.00;100702.13;5192564;28;20030;-81
2022/04/05 00:43:23;;;;;;;33.85;30.58;;;;;;;8.99;100.00;100688.84;5188174;28;20026;-82
2022/04/05 00:45:55;;;;;;;30.58;27.60;;;;;;;8.95;100.00;100686.94;5186223;28;20108;-81
2022/04/05 00:48:46;;;;;;;31.73;28.30;;;;;;;8.72;100.00;100656.44;5186282;28;20425;-81
2022/04/05 00:51:17;;;;;;;28.65;25.85;;;;;;;8.99;100.00;100691.53;5189831;28;20033;-81
2022/04/05 00:53:50;;;;;;;32.15;29.02;;;;;;;8.87;100.00;100668.50;5190011;28;20443;-82
2022/04/05 00:56:22;;;;;;;31.13;28.17;;;;;;;8.99;100.00;100701.50;5190212;28;20033;-81
2022/04/05 00:58:54;;;;;;;31.38;28.55;;;;;;;8.93;100.00;100697.94;5172874;28;20080;-81
2022/04/05 01:01:27;;;;;;;39.67;28.60;;;;;;;8.99;100.00;100707.69;5171915;28;20030;-81
2022/04/05 01:03:57;;;;;;;34.00;30.58;;;;;;;9.00;100.00;100703.13;5189894;28;20028;-81
2022/04/05 01:06:37;;;;;;;28.30;25.73;;;;;;;9.01;100.00;100693.97;5190729;28;20021;-80
2022/04/05 01:09:09;;;;;;;29.20;26.45;;;;;;;8.98;100.00;100689.91;5189967;28;20030;-80
2022/04/05 01:11:39;;;;;;;32.50;29.42;;;;;;;9.03;100.00;100699.94;5189744;28;20022;-81
2022/04/05 01:14:10;;;;;;;35.53;30.73;;;;;;;9.03;100.00;100699.94;5189398;28;20036;-80
2022/04/05 01:16:40;;;;;;;34.70;31.02;;;;;;;9.02;100.00;100703.69;5189690;28;20045;-80
2022/04/05 01:19:11;;;;;;;35.85;32.55;;;;;;;9.01;100.00;100694.81;5171900;28;20025;-80
2022/04/05 01:21:41;;;;;;;32.20;29.20;;;;;;;9.02;100.00;100704.50;5189111;28;20568;-83
2022/04/05 01:24:13;;;;;;;33.42;29.92;;;;;;;8.89;100.00;100677.16;5171803;28;20048;-81
2022/04/05 01:26:49;;;;;;;37.15;31.80;;;;;;;9.02;100.00;100711.78;5171746;28;20021;-81
2022/04/05 01:29:22;;;;;;;38.70;35.05;;;;;;;9.00;100.00;100703.13;5172061;28;20033;-81
2022/04/05 01:32:05;;;;;;;34.08;30.65;;;;;;;8.96;100.00;100691.22;5189037;28;20030;-81
2022/04/05 01:34:37;;;;;;;39.45;35.60;;;;;;;9.03;100.00;100697.25;5171121;28;20033;-83
2022/04/05 01:37:10;;;;;;;34.67;31.45;;;;;;;9.01;100.00;100693.97;5189316;28;20101;-84
2022/04/05 01:39:41;;;;;;;34.85;31.65;;;;;;;9.00;100.00;100689.66;5188941;28;20084;-82
2022/04/05 01:42:13;;;;;;;36.25;32.63;;;;;;;9.02;100.00;100696.44;5189176;28;20128;-80
2022/04/05 01:44:44;;;;;;;40.65;36.35;;;;;;;9.12;100.00;100696.56;5188793;28;20022;-80
2022/04/05 01:47:16;;;;;;;37.65;33.97;;;;;;;9.13;100.00;100694.69;5189082;28;20085;-80
2022/04/05 01:49:50;;;;;;;39.90;34.20;;;;;;;9.01;100.00;100667.88;5171878;28;20017;-80
2022/04/05 01:52:20;;;;;;;38.75;34.42;;;;;;;9.14;100.00;100699.00;5174612;28;20029;-83
2022/04/05 01:54:51;;;;;;;40.53;36.15;;;;;;;8.84;100.00;100640.19;5193267;28;20033;-80
2022/04/05 01:57:21;;;;;;;35.30;31.90;;;;;;;9.14;100.00;100686.38;5193864;28;20034;-81
2022/04/05 01:59:51;;;;;;;31.48;28.33;;;;;;;9.14;100.00;100690.94;5193418;28;20026;-82
2022/04/05 02:02:22;;;;;;;36.00;32.15;;;;;;;9.04;100.00;100680.03;5192494;28;20041;-83
2022/04/05 02:04:52;;;;;;;37.03;30.02;;;;;;;8.83;100.00;100648.50;5192900;28;20022;-84
2022/04/05 02:07:23;;;;;;;31.63;28.65;;;;;;;9.08;100.00;100683.84;5193092;28;20040;-84
2022/04/05 02:09:53;;;;;;;31.20;28.13;;;;;;;9.09;100.00;100688.16;5192904;28;20022;-84
2022/04/05 02:12:23;;;;;;;30.77;27.83;;;;;;;9.08;100.00;100694.63;5175855;28;20030;-84
2022/04/05 02:14:54;;;;;;;31.00;27.83;;;;;;;9.11;100.00;100691.44;5175727;28;20036;-80
2022/04/05 02:17:24;;;;;;;31.30;28.02;;;;;;;9.12;100.00;100690.38;5193161;28;20026;-82
2022/04/05 02:19:56;;;;;;;37.25;25.70;;;;;;;9.12;100.00;100687.69;5192689;28;20445;-83
2022/04/05 02:22:27;;;;;;;28.45;26.13;;;;;;;9.13;100.00;100703.59;5175667;28;20033;-82
2022/04/05 02:24:57;;;;;;;34.00;27.52;;;;;;;9.16;100.00;100710.34;5192963;28;20506;-86
2022/04/05 02:27:28;;;;;;;29.33;26.52;;;;;;;9.14;100.00;100702.53;5192784;28;20517;-83
2022/04/05 02:29:58;;;;;;;28.15;24.05;;;;;;;9.17;100.00;100695.81;5191059;28;20025;-83
2022/04/05 02:32:28;;;;;;;28.63;25.67;;;;;;;9.12;100.00;100685.78;5191446;28;20022;-83
2022/04/05 02:34:59;;;;;;;26.60;24.33;;;;;;;8.91;100.00;100656.16;5188841;28;20033;-83
2022/04/05 02:37:30;;;;;;;25.15;22.85;;;;;;;9.04;100.00;100677.31;5172374;28;20029;-82
2022/04/05 02:40:00;;;;;;;26.73;24.27;;;;;;;9.17;100.00;100705.78;5189026;28;20459;-84
2022/04/05 02:42:30;;;;;;;24.35;21.85;;;;;;;9.16;100.00;100702.28;5172125;28;20393;-83
2022/04/05 02:45:01;;;;;;;24.35;21.48;;;;;;;9.14;100.00;100696.31;5189159;28;20503;-83
2022/04/05 02:47:31;;;;;;;25.33;22.50;;;;;;;9.17;100.00;100697.72;5190270;28;20087;-83
2022/04/05 02:50:01;;;;;;;28.58;23.52;;;;;;;8.97;100.00;100652.44;5190238;28;20112;-84
2022/04/05 02:52:32;;;;;;;27.67;21.23;;;;;;;9.05;100.00;100677.09;5190421;28;20071;-83
2022/04/05 02:55:03;;;;;;;24.20;22.00;;;;;;;8.92;100.00;100652.41;5190989;28;20064;-81
2022/04/05 02:57:38;;;;;;;22.20;19.48;;;;;;;9.14;100.00;100693.63;5191226;28;20037;-83
2022/04/05 03:00:12;;;;;;;26.42;23.63;;;;;;;9.08;100.00;100681.16;5190244;28;20026;-81
2022/04/05 03:02:44;;;;;;;21.73;19.35;;;;;;;9.17;100.00;100687.75;5191126;28;20033;-81
2022/04/05 03:05:14;;;;;;;21.38;19.67;;;;;;;9.05;100.00;100673.56;5189634;28;20026;-83
2022/04/05 03:07:45;;;;;;;22.23;20.38;;;;;;;9.13;100.00;100700.91;5189923;28;20033;-84
2022/04/05 03:10:15;;;;;;;23.33;20.55;;;;;;;8.75;100.00;100637.09;5172133;28;20036;-80
2022/04/05 03:12:45;;;;;;;21.63;19.60;;;;;;;9.14;100.00;100682.84;5190530;28;20041;-82
2022/04/05 03:15:16;;;;;;;23.00;20.70;;;;;;;8.93;100.00;100657.56;5195225;28;20043;-78
2022/04/05 03:17:46;;;;;;;22.77;20.35;;;;;;;8.83;100.00;100645.81;5205211;28;20025;-80
2022/04/05 03:20:17;;;;;;;22.25;20.00;;;;;;;9.11;100.00;100692.25;5192985;28;20062;-84
2022/04/05 03:22:47;;;;;;;21.75;19.77;;;;;;;9.12;100.00;100693.88;5191834;28;20030;-84
2022/04/05 03:25:18;;;;;;;19.65;17.80;;;;;;;9.16;100.00;100696.06;5191271;28;20025;-80
2022/04/05 03:27:48;;;;;;;20.80;17.77;;;;;;;8.96;100.00;100666.97;5191385;28;20071;-80
2022/04/05 03:30:22;;;;;;;20.48;18.67;;;;;;;9.01;100.00;100675.13;5191429;28;20049;-83
2022/04/05 03:32:52;;;;;;;21.52;19.50;;;;;;;9.12;100.00;100693.88;5191752;28;20030;-81
2022/04/05 03:35:23;;;;;;;19.08;17.33;;;;;;;9.01;100.00;100680.53;5192010;28;20013;-82
2022/04/05 03:37:53;;;;;;;19.63;17.90;;;;;;;8.94;100.00;100671.84;5191809;28;20397;-84
2022/04/05 03:40:24;;;;;;;18.45;16.77;;;;;;;8.97;100.00;100671.31;5173967;28;20025;-83
2022/04/05 03:42:54;;;;;;;20.98;19.13;;;;;;;8.84;100.00;100652.84;5174060;28;20233;-83
2022/04/05 03:45:25;;;;;;;18.73;16.65;;;;;;;9.07;100.00;100690.31;5192911;28;20014;-80
2022/04/05 03:47:56;;;;;;;15.60;14.50;;;;;;;9.09;100.00;100688.16;5205712;28;20041;-79
2022/04/05 03:50:27;;;;;;;18.10;16.50;;;;;;;9.06;100.00;100689.47;5207027;28;20018;-79
2022/04/05 03:52:59;;;;;;;20.40;18.55;;;;;;;9.04;100.00;100690.78;5190277;28;20054;-80
2022/04/05 03:55:29;;;;;;;19.60;17.55;;;;;;;8.67;100.00;100640.22;5205863;28;20021;-80
2022/04/05 03:58:00;;;;;;;20.88;18.63;;;;;;;8.90;100.00;100674.22;5206161;28;20045;-78
2022/04/05 04:00:30;;;;;;;19.40;17.52;;;;;;;8.80;100.00;100661.41;5202353;28;20065;-78
2022/04/05 04:03:00;;;;;;;16.75;14.90;;;;;;;9.02;100.00;100688.34;5206137;28;20057;-78
2022/04/05 04:05:31;;;;;;;16.70;15.45;;;;;;;8.69;100.00;100640.78;5207391;28;20057;-79
2022/04/05 04:08:01;;;;;;;18.92;17.20;;;;;;;9.03;100.00;100695.38;5207343;28;20037;-81
2022/04/05 04:10:32;;;;;;;16.80;15.20;;;;;;;8.95;100.00;100681.53;5206537;28;20200;-83
2022/04/05 04:13:02;;;;;;;19.92;17.92;;;;;;;8.75;100.00;100660.53;5206545;28;20094;-83
2022/04/05 04:15:32;;;;;;;17.80;16.17;;;;;;;8.80;100.00;100658.72;5202875;28;20018;-85
2022/04/05 04:18:03;;;;;;;17.42;15.73;;;;;;;9.00;100.00;100689.66;5196794;28;20030;-80
2022/04/05 04:20:33;;;;;;;19.38;17.55;;;;;;;8.99;100.00;100688.03;5204113;28;20030;-80
2022/04/05 04:23:04;;;;;;;21.33;15.80;;;;;;;8.98;100.00;100691.78;5192250;28;20089;-84
2022/04/05 04:25:37;;;;;;;18.17;16.65;;;;;;;8.66;100.00;100641.28;5190911;28;20022;-83
2022/04/05 04:28:09;;;;;;;19.10;17.33;;;;;;;9.00;100.00;100692.34;5190685;28;20033;-83
2022/04/05 04:30:39;;;;;;;21.08;19.48;;;;;;;8.86;100.00;100681.16;5190168;28;20026;-85
2022/04/05 04:33:13;;;;;;;19.48;17.60;;;;;;;8.75;100.00;100655.94;5192044;28;20041;-81
2022/04/05 04:35:44;;;;;;;19.83;18.00;;;;;;;8.96;100.00;100699.28;5191388;28;20406;-84
2022/04/05 04:38:15;;;;;;;25.15;18.08;;;;;;;8.65;100.00;100655.84;5195868;28;20033;-81
2022/04/05 04:40:50;;;;;;;19.88;18.02;;;;;;;8.63;100.00;100639.13;5194069;28;20018;-82
2022/04/05 04:43:23;;;;;;;18.50;16.77;;;;;;;8.93;100.00;100683.66;5186936;28;20022;-81
2022/04/05 04:45:54;;;;;;;19.80;17.92;;;;;;;8.82;100.00;100663.03;5194185;28;20085;-84
2022/04/05 04:48:24;;;;;;;16.98;14.10;;;;;;;8.82;100.00;100663.03;5191684;28;20523;-84
2022/04/05 04:50:55;;;;;;;18.83;16.95;;;;;;;8.90;100.00;100679.59;5187187;28;20025;-82
2022/04/05 04:53:34;;;;;;;19.40;17.30;;;;;;;8.80;100.00;100664.09;5187058;28;20033;-85
2022/04/05 04:56:05;;;;;;;19.65;17.95;;;;;;;8.63;100.00;100641.81;5185881;28;20497;-84
2022/04/05 04:58:35;;;;;;;19.35;17.65;;;;;;;8.87;100.00;100684.66;5186383;28;20040;-80
2022/04/05 05:01:06;;;;;;;27.35;20.85;;;;;;;9.00;100.00;100700.44;5226661;23;20041;-80
2022/04/05 05:03:37;;;;;;;24.13;21.60;;;;;;;9.01;100.00;100702.06;5184798;28;20504;-80
2022/04/05 05:06:07;;;;;;;23.48;21.45;;;;;;;8.79;100.00;100657.09;5202432;28;20136;-81
2022/04/05 05:08:38;;;;;;;24.20;18.60;;;;;;;8.75;100.00;100657.84;5185634;28;20038;-80
2022/04/05 05:11:10;;;;;;;19.85;18.23;;;;;;;9.02;100.00;100692.91;5185796;28;20026;-82
2022/04/05 05:13:40;;;;;;;23.83;21.83;;;;;;;8.90;100.00;100673.38;5202035;28;20022;-79
2022/04/05 05:16:10;;;;;;;22.45;20.55;;;;;;;8.80;100.00;100666.78;5202889;28;20030;-79
2022/04/05 05:18:42;;;;;;;24.38;22.23;;;;;;;8.76;100.00;100665.66;5202695;28;20022;-79
2022/04/05 05:21:12;;;;;;;27.35;25.20;;;;;;;8.71;100.00;100654.81;5204124;28;20060;-80
2022/04/05 05:23:43;;;;;;;25.27;23.02;;;;;;;9.00;100.00;100701.25;5206308;28;20374;-80
2022/04/05 05:26:15;;;;;;;28.02;25.33;;;;;;;8.95;100.00;100695.00;5202524;28;20029;-77
2022/04/05 05:28:45;;;;;;;28.88;26.00;;;;;;;8.80;100.00;100672.19;5202476;28;20034;-80
2022/04/05 05:31:16;;;;;;;27.38;24.98;;;;;;;8.95;100.00;100693.09;5202419;28;20025;-79
2022/04/05 05:33:47;;;;;;;27.92;25.63;;;;;;;8.89;100.00;100677.97;5183694;28;20026;-80
2022/04/05 05:36:17;;;;;;;30.23;27.25;;;;;;;9.05;100.00;100714.78;5204468;28;20086;-78
2022/04/05 05:38:49;;;;;;;29.48;26.55;;;;;;;8.59;100.00;100634.47;5206153;28;20104;-78
2022/04/05 05:41:19;;;;;;;30.55;27.75;;;;;;;9.07;100.00;100712.66;5187061;28;20492;-79
2022/04/05 05:43:49;;;;;;;27.52;25.13;;;;;;;9.10;100.00;100711.34;5204430;28;20022;-80
2022/04/05 05:46:20;;;;;;;33.03;29.83;;;;;;;9.12;100.00;100714.63;5204958;28;20025;-78
2022/04/05 05:48:50;;;;;;;29.95;27.45;;;;;;;9.17;100.00;100721.94;5217587;28;20026;-77
2022/04/05 05:51:21;;;;;;;27.92;25.27;;;;;;;9.16;100.00;100721.13;5224809;28;20033;-80
2022/04/05 05:53:51;;;;;;;30.48;25.42;;;;;;;9.07;100.00;100703.78;5225993;28;20038;-78
2022/04/05 05:56:22;;;;;;;28.13;25.83;;;;;;;9.13;100.00;100729.72;5208746;28;20033;-79
2022/04/05 05:58:53;;;;;;;25.98;23.27;;;;;;;9.12;100.00;100715.44;5227661;28;20048;-78
2022/04/05 06:01:24;;;;;;;23.67;21.77;;;;;;;9.07;100.00;100711.84;5227674;28;20060;-79
2022/04/05 06:03:54;;;;;;;23.80;21.85;;;;;;;9.22;100.00;100747.09;5226003;28;20048;-81
2022/04/05 06:06:24;;;;;;;23.35;21.45;;;;;;;9.22;100.00;100730.91;5226314;28;20017;-81
2022/04/05 06:08:56;;;;;;;24.27;22.13;;;;;;;9.15;100.00;100716.81;5224836;28;20116;-79
2022/04/05 06:11:26;;;;;;;22.98;20.67;;;;;;;9.25;100.00;100727.69;5225452;28;20108;-81
2022/04/05 06:13:57;;;;;;;21.35;19.55;;;;;;;9.27;100.00;100730.16;5207095;28;20021;-81
2022/04/05 06:16:27;;;;;;;24.17;19.13;;;;;;;9.19;100.00;100722.53;5224903;28;20025;-80
2022/04/05 06:18:58;;;;;;;20.17;18.17;;;;;;;9.29;100.00;100742.31;5224285;28;20025;-81
2022/04/05 06:21:28;;;;;;;16.98;15.77;;;;;;;9.30;100.00;100743.94;5207463;28;20032;-80
2022/04/05 06:23:58;;;;;;;21.10;18.63;;;;;;;8.79;100.00;100656.28;5226122;28;20049;-78
2022/04/05 06:26:29;;;;;;;19.58;17.98;;;;;;;9.38;100.00;100748.91;5226360;28;20085;-83
2022/04/05 06:28:59;;;;;;;18.92;17.30;;;;;;;9.36;100.00;100747.50;5225222;28;20025;-81
2022/04/05 06:31:30;;;;;;;19.98;18.27;;;;;;;9.37;100.00;100744.56;5225436;28;20056;-82
2022/04/05 06:34:02;;;;;;;20.73;18.95;;;;;;;9.33;100.00;100743.44;5225598;28;20040;-81
2022/04/05 06:36:33;;;;;;;20.48;18.65;;;;;;;9.41;100.00;100756.47;5225351;28;20049;-82
2022/04/05 06:39:03;;;;;;;16.75;15.35;;;;;;;9.32;100.00;100735.59;5225154;28;20037;-82
2022/04/05 06:41:34;;;;;;;19.58;17.80;;;;;;;8.98;100.00;100678.31;5223125;28;20029;-84
2022/04/05 06:44:04;;;;;;;18.15;16.40;;;;;;;9.48;100.00;100770.59;5222128;28;20021;-83
2022/04/05 06:46:35;;;;;;;19.88;17.98;;;;;;;9.37;100.00;100739.19;5221214;28;20096;-85
2022/04/05 06:49:05;;;;;;;19.25;17.73;;;;;;;9.10;100.00;100706.78;5202968;28;20056;-83
2022/04/05 06:51:36;;;;;;;19.55;17.10;;;;;;;9.17;100.00;100698.53;5221830;28;20020;-81
2022/04/05 06:54:07;;;;;;;18.55;17.23;;;;;;;9.51;100.00;100746.91;5207013;28;20025;-82
2022/04/05 06:56:37;;;;;;;21.35;18.95;;;;;;;9.42;100.00;100741.94;5223426;28;20022;-82
2022/04/05 06:59:08;;;;;;;18.60;16.95;;;;;;;9.12;100.00;100703.84;5223292;28;20037;-81
2022/04/05 07:01:38;;;;;;;20.27;18.63;;;;;;;9.58;100.00;100753.72;5224139;28;20056;-81
2022/04/05 07:04:09;;;;;;;19.55;17.88;;;;;;;9.41;100.00;100732.22;5202057;28;20068;-81
2022/04/05 07:06:39;;;;;;;20.35;18.75;;;;;;;9.60;100.00;100772.31;5204053;28;20393;-82
2022/04/05 07:09:10;;;;;;;19.65;18.17;;;;;;;9.25;100.00;100697.25;5203330;28;20457;-82
2022/04/05 07:11:41;;;;;;;18.05;16.77;;;;;;;9.47;100.00;100735.81;5186422;28;20042;-81
2022/04/05 07:14:12;;;;;;;20.33;18.55;;;;;;;9.68;100.00;100755.72;5203844;28;20057;-82
2022/04/05 07:16:42;;;;;;;22.13;20.27;;;;;;;9.76;100.00;100769.56;5187194;28;20061;-80
2022/04/05 07:19:13;;;;;;;22.15;20.48;;;;;;;9.74;100.00;100760.09;5204442;28;20100;-80
2022/04/05 07:21:43;;;;;;;24.55;22.33;;;;;;;9.45;100.00;100719.06;5203764;28;20033;-77
2022/04/05 07:24:14;;;;;;;22.45;20.23;;;;;;;9.69;100.00;100777.03;5204009;28;20026;-79
2022/04/05 07:26:45;;;;;;;22.10;20.08;;;;;;;9.58;100.00;100756.41;5203832;28;20409;-80
2022/04/05 07:29:15;;;;;;;23.45;21.10;;;;;;;9.30;100.00;100722.38;5205100;28;20033;-79
2022/04/05 07:31:46;;;;;;;24.98;23.08;;;;;;;9.56;100.00;100752.31;5204987;28;20481;-78
2022/04/05 07:34:16;;;;;;;25.58;23.30;;;;;;;9.38;100.00;100730.03;5204675;28;20496;-80
2022/04/05 07:36:46;;;;;;;21.65;19.92;;;;;;;9.66;100.00;100769.44;5204325;28;20014;-80
2022/04/05 07:39:19;;;;;;;21.77;19.95;;;;;;;9.55;100.00;100746.13;5186402;28;20026;-80
2022/04/05 07:41:50;;;;;;;22.08;20.25;;;;;;;9.45;100.00;100727.97;5186529;28;20026;-80
2022/04/05 07:44:21;;;;;;;23.73;21.60;;;;;;;9.67;100.00;100767.56;5186034;28;20033;-80
2022/04/05 07:46:52;;;;;;;20.90;19.20;;;;;;;9.68;100.00;100771.91;5202575;28;20022;-79
2022/04/05 07:49:23;;;;;;;24.48;21.10;;;;;;;9.44;100.00;100731.72;5202902;28;20040;-80
2022/04/05 07:51:53;;;;;;;23.63;21.55;;;;;;;9.59;100.00;100763.44;5202271;28;20022;-79
2022/04/05 07:54:24;;;;;;;23.45;21.70;;;;;;;9.61;100.00;100755.09;5201261;28;20025;-79
2022/04/05 07:56:54;;;;;;;22.88;20.88;;;;;;;9.67;100.00;100749.50;5185852;28;20022;-80
2022/04/05 07:59:25;;;;;;;24.27;22.38;;;;;;;9.79;100.00;100774.47;5202359;28;20025;-80
2022/04/05 08:01:55;;;;;;;23.10;21.35;;;;;;;9.63;100.00;100736.78;5201782;28;20061;-81
2022/04/05 08:04:26;;;;;;;21.92;20.20;;;;;;;9.74;100.00;100760.09;5202857;28;20033;-78
2022/04/05 08:06:56;;;;;;;22.40;20.42;;;;;;;9.91;100.00;100770.78;5185672;28;20020;-79
2022/04/05 08:09:27;;;;;;;22.33;20.50;;;;;;;9.59;100.00;100722.16;5202118;28;20122;-79
2022/04/05 08:11:58;;;;;;;20.40;18.80;;;;;;;9.88;100.00;100761.31;5202641;28;20018;-78
2022/04/05 08:14:31;;;;;;;21.10;19.10;;;;;;;10.04;100.00;100765.81;5184691;28;20041;-79
2022/04/05 08:17:02;;;;;;;20.27;18.40;;;;;;;9.99;100.00;100767.66;5202648;28;20018;-80
2022/04/05 08:19:32;;;;;;;20.73;18.98;;;;;;;10.15;100.00;100782.91;5202208;28;20093;-77
2022/04/05 08:22:03;;;;;;;20.92;19.27;;;;;;;10.29;100.00;100770.69;5200598;28;20072;-78
2022/04/05 08:24:34;;;;;;;24.33;22.50;;;;;;;10.29;100.00;100777.97;5201206;28;20029;-80
2022/04/05 08:27:04;;;;;;;22.27;20.20;;;;;;;9.99;100.00;100725.31;5201389;28;20114;-79
2022/04/05 08:29:40;;;;;;;23.70;21.80;;;;;;;10.37;100.00;100774.81;5201813;28;20029;-78
2022/04/05 08:32:10;;;;;;;24.02;22.02;;;;;;;10.39;100.00;100768.06;5184009;28;20026;-81
2022/04/05 08:34:42;;;;;;;23.83;21.92;;;;;;;10.12;100.00;100738.34;5185161;28;20049;-79
2022/04/05 08:37:13;;;;;;;22.98;20.88;;;;;;;10.31;100.00;100768.53;5184410;28;20037;-79
2022/04/05 08:39:44;;;;;;;21.27;19.77;;;;;;;10.52;100.00;100777.63;5184429;28;20036;-79
2022/04/05 08:42:15;;;;;;;23.13;21.27;;;;;;;10.47;100.00;100764.06;5201925;28;20050;-81
2022/04/05 08:44:49;;;;;;;22.63;20.75;;;;;;;10.50;100.00;100758.16;5201538;28;20026;-79
2022/04/05 08:47:21;;;;;;;23.75;22.05;;;;;;;10.58;100.00;100768.50;5201486;28;20033;-80
2022/04/05 08:49:52;;;;;;;20.67;19.20;;;;;;;10.49;100.00;100745.72;5183516;28;20057;-80
2022/04/05 08:52:23;;;;;;;21.08;19.35;;;;;;;10.79;100.00;100755.94;5201198;28;20025;-79
2022/04/05 08:54:55;;;;;;;19.83;18.27;;;;;;;10.90;100.00;100771.16;5200807;28;20034;-80
2022/04/05 08:57:25;;;;;;;20.58;18.77;;;;;;;10.62;100.00;100715.59;5200866;28;20433;-82
2022/04/05 08:59:56;;;;;;;19.50;17.88;;;;;;;11.12;100.00;100773.72;5201492;28;20021;-80
2022/04/05 09:02:27;;;;;;;22.02;20.38;;;;;;;10.62;100.00;100707.50;5201301;28;20037;-78
2022/04/05 09:04:58;;;;;;;21.70;19.90;;;;;;;11.08;100.00;100772.59;5203009;28;20050;-81
2022/04/05 09:07:31;;;;;;;20.52;18.90;;;;;;;10.71;100.00;100746.44;5185192;28;20029;-80
2022/04/05 09:10:16;;;;;;;18.58;16.98;;;;;;;10.49;100.00;100735.75;5185974;28;20026;-80
2022/04/05 09:12:50;;;;;;;20.58;19.00;;;;;;;10.71;100.00;100791.53;5207465;28;20498;-79
2022/04/05 09:15:21;;;;;;;18.65;17.15;;;;;;;10.68;100.00;100776.66;5196318;28;20028;-82
2022/04/05 09:17:52;;;;;;;16.75;15.45;;;;;;;10.58;100.00;100773.06;5213382;28;20033;-80
2022/04/05 09:20:24;;;;;;;19.05;17.42;;;;;;;10.58;100.00;100773.06;5190148;28;20061;-80
2022/04/05 09:22:56;;;;;;;18.15;16.10;;;;;;;10.23;100.00;100722.31;5207636;28;20048;-82
2022/04/05 09:25:26;;;;;;;17.67;16.13;;;;;;;10.65;100.00;100796.09;5189032;28;20025;-79
2022/04/05 09:27:58;;;;;;;16.80;15.60;;;;;;;10.24;100.00;100722.03;5206030;28;20021;-79
2022/04/05 09:30:31;;;;;;;16.98;15.73;;;;;;;10.38;100.00;100734.06;5205252;28;20026;-78
2022/04/05 09:33:04;;;;;;;17.48;16.10;;;;;;;10.69;100.00;100774.75;5205221;28;20025;-80
2022/04/05 09:35:43;;;;;;;17.42;15.93;;;;;;;10.63;100.00;100771.25;5203631;28;20052;-79
2022/04/05 09:38:17;;;;;;;17.45;16.17;;;;;;;10.65;100.00;100793.41;5185658;28;20125;-81
2022/04/05 09:40:52;;;;;;;15.30;14.20;;;;;;;10.65;100.00;100784.47;5206309;28;20022;-81
2022/04/05 09:43:22;;;;;;;15.75;14.52;;;;;;;10.62;100.00;100782.28;5207704;28;20048;-79
2022/04/05 09:46:00;;;;;;;17.15;15.90;;;;;;;10.52;100.00;100764.13;5206933;28;20022;-80
2022/04/05 09:48:35;;;;;;;16.70;15.50;;;;;;;10.57;100.00;100785.75;5189973;28;20026;-80
2022/04/05 09:51:10;;;;;;;14.88;13.82;;;;;;;10.57;100.00;100804.66;5207303;28;20101;-79
2022/04/05 09:53:54;;;;;;;15.85;14.80;;;;;;;10.51;100.00;100804.88;5206319;28;20029;-81
2022/04/05 09:56:38;;;;;;;17.85;16.45;;;;;;;9.88;100.00;100711.97;5188923;28;20098;-80
2022/04/05 09:59:16;;;;;;;18.90;17.55;;;;;;;10.42;100.00;100804.50;5205837;28;20061;-81
2022/04/05 10:01:47;;;;;;;20.05;18.30;;;;;;;10.45;100.00;100804.00;5206673;28;20030;-80
2022/04/05 10:04:18;;;;;;;17.98;16.65;;;;;;;10.45;100.00;100814.81;5203511;28;20030;-80
2022/04/05 10:06:49;;;;;;;20.05;18.55;;;;;;;10.39;100.00;100819.38;5203853;28;20036;-78
2022/04/05 10:09:21;;;;;;;19.98;18.58;;;;;;;9.84;100.00;100738.63;5202471;28;20030;-78
2022/04/05 10:11:53;;;;;;;24.33;22.02;;;;;;;10.32;100.00;100782.84;5202449;28;20022;-79
2022/04/05 10:14:25;;;;;;;19.92;18.48;;;;;;;10.45;100.00;100766.22;5202649;28;20041;-79
2022/04/05 10:16:56;;;;;;;22.38;20.48;;;;;;;10.66;100.00;100780.72;5202120;28;20075;-79
2022/04/05 10:19:27;;;;;;;20.20;18.73;;;;;;;11.07;100.00;100808.81;5183744;28;20033;-78
2022/04/05 10:21:58;;;;;;;19.33;17.92;;;;;;;11.22;100.00;100833.25;5200976;28;20030;-80
2022/04/05 10:24:30;;;;;;;18.88;17.17;;;;;;;11.40;100.00;100815.78;5184044;28;20364;-80
2022/04/05 10:27:02;;;;;;;14.98;13.98;;;;;;;11.53;100.00;100820.72;5202063;28;20032;-80
2022/04/05 10:29:33;;;;;;;13.65;12.82;;;;;;;11.14;100.00;100756.16;5184337;28;20029;-78
2022/04/05 10:32:33;;;;;;;14.60;13.60;;;;;;;11.49;100.00;100801.50;5201700;28;20033;-80
2022/04/05 10:35:08;;;;;;;13.65;12.80;;;;;;;11.56;100.00;100816.66;5200590;28;20400;-79
2022/04/05 10:37:39;;;;;;;11.07;10.05;;;;;;;11.34;100.00;100811.41;5200718;28;20026;-80
2022/04/05 10:40:12;;;;;;;11.32;10.63;;;;;;;11.36;100.00;100810.06;5182646;28;20150;-84
2022/04/05 10:42:46;;;;;;;9.27;8.68;;;;;;;11.32;100.00;100811.66;5199887;28;20085;-79
2022/04/05 10:45:22;;;;;;;10.95;10.35;;;;;;;11.33;100.00;100788.16;5199482;28;20101;-80
2022/04/05 10:48:18;;;;;;;9.80;9.20;;;;;;;11.61;100.00;100776.09;5197140;28;20037;-80
2022/04/05 10:51:00;;;;;;;12.32;11.38;;;;;;;12.02;100.00;100801.44;5201213;28;20018;-80
2022/04/05 10:53:38;;;;;;;10.55;9.65;;;;;;;12.15;100.00;100798.22;5196108;28;20029;-80
2022/04/05 10:56:10;;;;;;;11.45;10.45;;;;;;;12.26;100.00;100796.34;5178384;28;20040;-81
2022/04/05 10:59:05;;;;;;;10.45;9.43;;;;;;;12.28;100.00;100805.81;5194315;28;20118;-81
2022/04/05 11:01:43;;;;;;;8.93;8.07;;;;;;;12.20;100.00;100792.81;5211528;23;20038;-61
2022/04/05 11:04:31;;;;;;;9.15;8.60;;;;;;;12.26;100.00;100796.34;5207527;28;20044;-63
2022/04/05 11:07:01;;;;;;;8.85;8.25;;;;;;;12.34;100.00;100788.50;5207921;28;20025;-61
2022/04/05 11:09:47;;;;;;;8.10;7.53;;;;;;;12.46;100.00;100790.94;5207543;28;20032;-59
2022/04/05 11:12:27;;;;;;;8.52;7.93;;;;;;;12.45;100.00;100795.53;5207713;28;20037;-61
2022/04/05 11:15:08;;;;;;;6.63;6.15;;;;;;;12.61;100.00;100793.66;5207396;28;20371;-62
2022/04/05 11:17:41;;;;;;;8.20;7.70;;;;;;;12.42;100.00;100797.97;5224656;28;20039;-62
2022/04/05 11:20:13;;;;;;;8.68;8.15;;;;;;;12.32;100.00;100784.44;5224584;28;20509;-60
2022/04/05 11:22:43;;;;;;;8.48;7.97;;;;;;;12.36;100.00;100780.94;5207796;28;20039;-58
2022/04/05 11:25:26;;;;;;;10.63;9.93;;;;;;;12.61;100.00;100784.72;5207666;28;20025;-58
2022/04/05 11:28:14;;;;;;;11.02;10.13;;;;;;;12.98;100.00;100776.31;5208003;28;20033;-65